x

Columbia River Bar - 20nm West Of Columbia River Mouth (46029) Wave Buoy

7:50 - Sat 1st Oct 2016 All times are PDT. -7 hours from GMT.

  • Sig Wave height 7.9ft
  • Swell Direction
  • Peak Period 7s
  • Average Period 6s
  • Wind
    22mph, 29mph gusts
  • Sea Temp 57°f
  • Air Temp 55°f
  • Sea Pressure 1011.6mb
  • Columbia River Bar - 20nm West Of Columbia River Mouth
  • Columbia River Bar - 20nm West Of Columbia River Mouth

More Historic Weather Station data

Upgrade to MSW Pro to gain access to the past 30 days of data for over 8000 Wavebouys and Weather Stations around the globe.

Join Pro

Comparision Forecast

View Surf forecast
   
sam. 10/01 7:50 8ft 7s 6s 22 29 mph 1011.6mb 57f 55f
6:50 8.5ft 7s 6s 20 25 mph 1011.9mb 57f 55f
5:50 9ft 7s 6s 29 36 mph 1010.9mb 57f 56f
4:50 8.5ft 7s 6s 27 34 mph 1011.3mb 57f 56f
3:50 8.5ft 8s 6s 25 29 mph 1011.7mb 58f 56f
2:50 7.5ft 8s 6s 27 31 mph 1011.9mb 58f 56f
1:50 8ft 7s 6s 27 31 mph 1012.1mb 58f 57f
12:50 7.5ft 7s 6s 22 29 mph 1012.5mb 58f 56f
ven. 09/30 11:50 8ft 7s 6s 25 29 mph 1012.8mb 58f 56f
10:50 7.5ft 7s 6s 25 27 mph 1013.2mb 58f 56f
9:50 6ft 10s 5s 27 34 mph 1013.6mb 58f 55f
8:50 6ft 10s 5s 27 31 mph 1014.2mb 58f 56f
7:50 5ft 10s 5s 25 31 mph 1014.7mb 59f 56f
6:50 5ft 11s 6s 22 27 mph 1015.2mb 59f 57f
5:50 4.5ft 11s 6s 22 27 mph 1015.6mb 59f 56f
4:50 4.5ft 11s 7s 20 22 mph 1015.9mb 59f 56f
3:50 4.5ft 11s 8s 11 13 mph 1016.2mb 59f 55f
2:50 4.5ft 11s 8s 7 9 mph 1016.4mb 59f 55f
1:50 4.5ft 11s 8s 7 9 mph 1016.6mb 59f 55f
12:50 4.5ft 9s 8s  -  4 mph 1016.9mb 59f 55f
11:50 4.5ft 11s 8s 2 4 mph 1017mb 59f 54f
9:50 4.5ft 10s 8s 7
mph
1017.2mb 58f 52f
8:50 6ft 10s 8s 7
mph
1017.2mb 58f 55f
7:50 5.5ft 10s 8s 4 7 mph 1017.4mb 58f 55f
6:50 5.5ft 10s 9s 4 7 mph 1017.6mb 58f 55f
5:50 6ft 10s 9s 4 7 mph 1017.7mb 58f 55f
4:50 6ft 10s 8s 4 7 mph 1018mb 58f 56f
3:50 5.5ft 11s 8s 2 4 mph 1018.3mb 58f 56f
2:50 5ft 11s 8s 4 7 mph 1018.5mb 58f 56f
1:50 5ft 11s 8s 2 4 mph 1018.3mb 58f 57f
12:50 5ft 11s 8s 2 4 mph 1018.5mb 59f 57f
jeu. 09/29 11:50 5ft 11s 8s 4 7 mph 1018.9mb 59f 57f
10:50 5ft 9s 8s 4 7 mph 1018.8mb 59f 58f
9:50 5ft 10s 7s 7
mph
1019mb 59f 58f
8:50 5ft 9s 7s 7 9 mph 1019.2mb 59f 58f
7:50 4.5ft 9s 7s 7 9 mph 1019.5mb 59f 58f
6:50 4.5ft 8s 6s 7
mph
1019.7mb 59f 59f
5:50 4.5ft 8s 6s 4 7 mph 1019.8mb 59f 58f
4:50 3.5ft 8s 6s 9
mph
1019.7mb 59f 58f
3:50 3.5ft 8s 6s 9
mph
1019.8mb 59f 58f
2:50 4ft 8s 6s 9 11 mph 1020mb 59f 58f
1:50 3.5ft 8s 5s 9 11 mph 1020mb 58f 58f
12:50 3.5ft 8s 5s 11 13 mph 1020mb 58f 57f
11:50 4ft 6s 5s 13
mph
1020.1mb 58f 57f
10:50 4.5ft 6s 5s 16
mph
1019.9mb 58f 57f
9:50 5ft 6s 5s 18 20 mph 1019.4mb 58f 57f
8:50 4.5ft 6s 5s 18 20 mph 1019.4mb 58f 57f
7:50 5ft 6s 5s 20 22 mph 1019.1mb 58f 57f
6:50 6ft 6s 5s 20 27 mph 1018.7mb 58f 56f
5:50 6ft 6s 5s 22 27 mph 1018.3mb 58f 56f
4:50 6ft 7s 5s 22 25 mph 1018.5mb 58f 56f
3:50 6ft 7s 5s 25 29 mph 1018.4mb 58f 56f
2:50 6.5ft 7s 5s 25 27 mph 1018.2mb 58f 56f
1:50 7.5ft 7s 6s 25 29 mph 1018.2mb 58f 56f
12:50 7ft 8s 6s 25 29 mph 1018.1mb 58f 56f
mer. 09/28 11:50 7.5ft 8s 6s 25 29 mph 1018mb 58f 57f
10:50 7ft 8s 6s 25 29 mph 1018.3mb 58f 57f
9:50 6ft 7s 6s 22 29 mph 1018.2mb 58f 57f
8:50 6ft 8s 5s 22 25 mph 1018.1mb 58f 57f
7:50 5.5ft 8s 5s 22 25 mph 1018.1mb 58f 57f
6:50 5.5ft 8s 5s 20 25 mph 1018.2mb 59f 57f
5:50 5.5ft 7s 5s 20 22 mph 1018.5mb 59f 57f
4:50 6ft 8s 6s 20 25 mph 1018.5mb 59f 57f
3:50 6ft 8s 6s 20 22 mph 1018.7mb 58f 57f
2:50 6.5ft 8s 6s 20 22 mph 1018.6mb 58f 57f
1:50 6.5ft 8s 6s 18 22 mph 1018.9mb 57f 57f
12:50 6.5ft 7s 6s 18 20 mph 1019.3mb 57f 56f
11:50 7ft 8s 6s 18 20 mph 1019.4mb 58f 56f
10:50 7ft 8s 6s 18 20 mph 1019.6mb 58f 56f
9:50 7ft 8s 6s 18 20 mph 1019.7mb 58f 56f
8:50 6ft 8s 6s 16 20 mph 1019.7mb 58f 56f
7:50 6ft 8s 6s 18 20 mph 1019.7mb 58f 56f
6:50 6ft 7s 6s 18 20 mph 1019.4mb 58f 56f
5:50 6.5ft 8s 6s 20 22 mph 1019.4mb 58f 57f
4:50 7ft 8s 6s 18 20 mph 1019.3mb 58f 57f
3:50 7ft 8s 6s 18 22 mph 1019.4mb 58f 57f
2:50 6.5ft 8s 6s 18 22 mph 1019.5mb 58f 57f
1:50 7ft 8s 6s 20 22 mph 1019.8mb 58f 57f
12:50 6.5ft 8s 6s 20 22 mph 1019.9mb 58f 57f
mar. 09/27 11:50 7ft 10s 6s 20 22 mph 1019.8mb 58f 58f
10:50 7ft 9s 6s 20 25 mph 1020.2mb 58f 58f
9:50 8ft 8s 6s 22 25 mph 1020.2mb 58f 57f
8:50 9ft 10s 6s 20 25 mph 1020.4mb 58f 58f
7:50 8ft 10s 6s 22 27 mph 1020.2mb 58f 58f
6:50 8ft 9s 6s 22 27 mph 1020.2mb 58f 58f
5:50 7.5ft 8s 6s 20 25 mph 1020.6mb 58f 57f
4:50 8ft 8s 6s 22 25 mph 1021mb 58f 57f